Time,TemperatureF,DewpointF,PressureIn,WindDirection,WindDirectionDegrees,WindSpeedMPH,WindSpeedGustMPH,Humidity,HourlyPrecipIn,Conditions,Clouds,dailyrainin,SoftwareType,DateUTC
2013-02-13 00:00:00,36.0,35.0,-100.00,SSE,167,5.0,-999.0,93,0.00,,,-99.99,,2013-02-13 08:00:00,
2013-02-13 00:22:00,36.0,35.0,-100.00,SSE,167,5.0,-999.0,93,0.00,,,-99.99,,2013-02-13 08:22:00,
2013-02-13 00:32:00,36.0,35.0,-100.00,SSE,167,5.0,-999.0,93,0.00,,,-99.99,,2013-02-13 08:32:00,
2013-02-13 00:43:00,36.0,35.0,-100.00,SSE,167,5.0,-999.0,93,0.00,,,-99.99,,2013-02-13 08:43:00,
2013-02-13 00:52:00,36.0,35.0,-100.00,SSE,167,5.0,-999.0,93,0.00,,,-99.99,,2013-02-13 08:52:00,
2013-02-13 01:00:00,38.0,35.0,-100.00,SE,140,3.0,-999.0,89,0.00,,,-99.99,,2013-02-13 09:00:00,
2013-02-13 01:21:00,38.0,35.0,-100.00,SE,140,3.0,-999.0,89,0.00,,,-99.99,,2013-02-13 09:21:00,
2013-02-13 01:32:00,38.0,35.0,-100.00,SE,140,3.0,-999.0,89,0.00,,,-99.99,,2013-02-13 09:32:00,
2013-02-13 01:42:00,38.0,35.0,-100.00,SE,140,3.0,-999.0,89,0.00,,,-99.99,,2013-02-13 09:42:00,
2013-02-13 01:52:00,38.0,35.0,-100.00,SE,140,3.0,-999.0,89,0.00,,,-99.99,,2013-02-13 09:52:00,
2013-02-13 02:00:00,35.0,33.0,-100.00,South,189,4.0,-999.0,94,0.00,,,-99.99,,2013-02-13 10:00:00,
2013-02-13 02:22:00,35.0,33.0,-100.00,South,189,4.0,-999.0,94,0.00,,,-99.99,,2013-02-13 10:22:00,
2013-02-13 02:32:00,35.0,33.0,-100.00,South,189,4.0,-999.0,94,0.00,,,-99.99,,2013-02-13 10:32:00,
2013-02-13 02:42:00,35.0,33.0,-100.00,South,189,4.0,-999.0,94,0.00,,,-99.99,,2013-02-13 10:42:00,
2013-02-13 02:52:00,35.0,33.0,-100.00,South,189,4.0,-999.0,94,0.00,,,-99.99,,2013-02-13 10:52:00,
2013-02-13 03:00:00,34.0,33.0,-100.00,SSE,168,3.0,-999.0,94,0.00,,,-99.99,,2013-02-13 11:00:00,
2013-02-13 03:22:00,34.0,33.0,-100.00,SSE,168,3.0,-999.0,94,0.00,,,-99.99,,2013-02-13 11:22:00,
2013-02-13 03:32:00,34.0,33.0,-100.00,SSE,168,3.0,-999.0,94,0.00,,,-99.99,,2013-02-13 11:32:00,
2013-02-13 03:42:00,34.0,33.0,-100.00,SSE,168,3.0,-999.0,94,0.00,,,-99.99,,2013-02-13 11:42:00,
2013-02-13 03:52:00,34.0,33.0,-100.00,SSE,168,3.0,-999.0,94,0.00,,,-99.99,,2013-02-13 11:52:00,
2013-02-13 04:00:00,34.0,33.0,-100.00,SSE,150,3.0,-999.0,95,0.00,,,-99.99,,2013-02-13 12:00:00,
2013-02-13 04:22:00,34.0,33.0,-100.00,SSE,150,3.0,-999.0,95,0.00,,,-99.99,,2013-02-13 12:22:00,
2013-02-13 04:32:00,34.0,33.0,-100.00,SSE,150,3.0,-999.0,95,0.00,,,-99.99,,2013-02-13 12:32:00,
2013-02-13 04:42:00,34.0,33.0,-100.00,SSE,150,3.0,-999.0,95,0.00,,,-99.99,,2013-02-13 12:42:00,
2013-02-13 04:52:00,34.0,33.0,-100.00,SSE,150,3.0,-999.0,95,0.00,,,-99.99,,2013-02-13 12:52:00,
2013-02-13 05:00:00,34.0,33.0,-100.00,SSE,155,3.0,-999.0,95,0.00,,,-99.99,,2013-02-13 13:00:00,
2013-02-13 05:21:00,34.0,33.0,-100.00,SSE,155,3.0,-999.0,95,0.00,,,-99.99,,2013-02-13 13:21:00,
2013-02-13 05:32:00,34.0,33.0,-100.00,SSE,155,3.0,-999.0,95,0.00,,,-99.99,,2013-02-13 13:32:00,
2013-02-13 05:42:00,34.0,33.0,-100.00,SSE,155,3.0,-999.0,95,0.00,,,-99.99,,2013-02-13 13:42:00,
2013-02-13 05:52:00,34.0,33.0,-100.00,SSE,155,3.0,-999.0,95,0.00,,,-99.99,,2013-02-13 13:52:00,
2013-02-13 06:00:00,32.0,31.0,-100.00,South,169,4.0,-999.0,95,0.00,,,-99.99,,2013-02-13 14:00:00,
2013-02-13 06:22:00,32.0,31.0,-100.00,South,169,4.0,-999.0,95,0.00,,,-99.99,,2013-02-13 14:22:00,
2013-02-13 06:32:00,32.0,31.0,-100.00,South,169,4.0,-999.0,95,0.00,,,-99.99,,2013-02-13 14:32:00,
2013-02-13 06:42:00,32.0,31.0,-100.00,South,169,4.0,-999.0,95,0.00,,,-99.99,,2013-02-13 14:42:00,
2013-02-13 06:52:00,32.0,31.0,-100.00,South,169,4.0,-999.0,95,0.00,,,-99.99,,2013-02-13 14:52:00,
2013-02-13 07:00:00,33.0,32.0,-100.00,SSE,154,3.0,-999.0,95,0.00,,,-99.99,,2013-02-13 15:00:00,
2013-02-13 07:21:00,33.0,32.0,-100.00,SSE,154,3.0,-999.0,95,0.00,,,-99.99,,2013-02-13 15:21:00,
2013-02-13 07:32:00,33.0,32.0,-100.00,SSE,154,3.0,-999.0,95,0.00,,,-99.99,,2013-02-13 15:32:00,
2013-02-13 07:42:00,33.0,32.0,-100.00,SSE,154,3.0,-999.0,95,0.00,,,-99.99,,2013-02-13 15:42:00,
2013-02-13 07:52:00,33.0,32.0,-100.00,SSE,154,3.0,-999.0,95,0.00,,,-99.99,,2013-02-13 15:52:00,
2013-02-13 08:00:00,31.0,30.0,-100.00,SSE,166,3.0,-999.0,95,0.00,,,-99.99,,2013-02-13 16:00:00,
2013-02-13 08:21:00,31.0,30.0,-100.00,SSE,166,3.0,-999.0,95,0.00,,,-99.99,,2013-02-13 16:21:00,
2013-02-13 08:32:00,31.0,30.0,-100.00,SSE,166,3.0,-999.0,95,0.00,,,-99.99,,2013-02-13 16:32:00,
2013-02-13 08:42:00,31.0,30.0,-100.00,SSE,166,3.0,-999.0,95,0.00,,,-99.99,,2013-02-13 16:42:00,
2013-02-13 08:52:00,31.0,30.0,-100.00,SSE,166,3.0,-999.0,95,0.00,,,-99.99,,2013-02-13 16:52:00,
2013-02-13 09:00:00,34.0,33.0,-100.00,SSW,194,2.0,-999.0,94,0.00,,,-99.99,,2013-02-13 17:00:00,
2013-02-13 09:21:00,34.0,33.0,-100.00,SSW,194,2.0,-999.0,94,0.00,,,-99.99,,2013-02-13 17:21:00,
2013-02-13 09:32:00,34.0,33.0,-100.00,SSW,194,2.0,-999.0,94,0.00,,,-99.99,,2013-02-13 17:32:00,
2013-02-13 09:42:00,34.0,33.0,-100.00,SSW,194,2.0,-999.0,94,0.00,,,-99.99,,2013-02-13 17:42:00,
2013-02-13 09:52:00,34.0,33.0,-100.00,SSW,194,2.0,-999.0,94,0.00,,,-99.99,,2013-02-13 17:52:00,
2013-02-13 10:00:00,41.0,36.0,-100.00,South,178,2.0,-999.0,81,0.00,,,-99.99,,2013-02-13 18:00:00,
2013-02-13 10:23:00,41.0,36.0,-100.00,South,178,2.0,-999.0,81,0.00,,,-99.99,,2013-02-13 18:23:00,
2013-02-13 10:32:00,41.0,36.0,-100.00,South,178,2.0,-999.0,81,0.00,,,-99.99,,2013-02-13 18:32:00,
2013-02-13 10:42:00,41.0,36.0,-100.00,South,178,2.0,-999.0,81,0.00,,,-99.99,,2013-02-13 18:42:00,
2013-02-13 10:52:00,41.0,36.0,-100.00,South,178,2.0,-999.0,81,0.00,,,-99.99,,2013-02-13 18:52:00,
2013-02-13 11:00:00,51.0,40.0,-100.00,South,182,1.0,-999.0,65,0.00,,,-99.99,,2013-02-13 19:00:00,
2013-02-13 11:21:00,51.0,40.0,-100.00,South,182,1.0,-999.0,65,0.00,,,-99.99,,2013-02-13 19:21:00,
2013-02-13 11:32:00,51.0,40.0,-100.00,South,182,1.0,-999.0,65,0.00,,,-99.99,,2013-02-13 19:32:00,
2013-02-13 11:42:00,51.0,40.0,-100.00,South,182,1.0,-999.0,65,0.00,,,-99.99,,2013-02-13 19:42:00,
2013-02-13 11:52:00,51.0,40.0,-100.00,South,182,1.0,-999.0,65,0.00,,,-99.99,,2013-02-13 19:52:00,
2013-02-13 12:00:00,56.0,39.0,-100.00,NW,326,2.0,-999.0,52,0.00,,,-99.99,,2013-02-13 20:00:00,
2013-02-13 12:22:00,56.0,39.0,-100.00,NW,326,2.0,-999.0,52,0.00,,,-99.99,,2013-02-13 20:22:00,
2013-02-13 12:32:00,56.0,39.0,-100.00,NW,326,2.0,-999.0,52,0.00,,,-99.99,,2013-02-13 20:32:00,
2013-02-13 12:42:00,56.0,39.0,-100.00,NW,326,2.0,-999.0,52,0.00,,,-99.99,,2013-02-13 20:42:00,
2013-02-13 12:52:00,56.0,39.0,-100.00,NW,326,2.0,-999.0,52,0.00,,,-99.99,,2013-02-13 20:52:00,
2013-02-13 13:00:00,60.0,42.0,-100.00,NNW,347,4.0,-999.0,51,0.00,,,-99.99,,2013-02-13 21:00:00,
2013-02-13 13:21:00,60.0,42.0,-100.00,NNW,347,4.0,-999.0,51,0.00,,,-99.99,,2013-02-13 21:21:00,
2013-02-13 13:32:00,60.0,42.0,-100.00,NNW,347,4.0,-999.0,51,0.00,,,-99.99,,2013-02-13 21:32:00,
2013-02-13 13:42:00,60.0,42.0,-100.00,NNW,347,4.0,-999.0,51,0.00,,,-99.99,,2013-02-13 21:42:00,
2013-02-13 13:52:00,60.0,42.0,-100.00,NNW,347,4.0,-999.0,51,0.00,,,-99.99,,2013-02-13 21:52:00,
2013-02-13 14:00:00,62.0,39.0,-100.00,NNW,331,4.0,-999.0,41,0.00,,,-99.99,,2013-02-13 22:00:00,
2013-02-13 14:21:00,62.0,39.0,-100.00,NNW,331,4.0,-999.0,41,0.00,,,-99.99,,2013-02-13 22:21:00,
2013-02-13 14:32:00,62.0,39.0,-100.00,NNW,331,4.0,-999.0,41,0.00,,,-99.99,,2013-02-13 22:32:00,
2013-02-13 14:42:00,62.0,39.0,-100.00,NNW,331,4.0,-999.0,41,0.00,,,-99.99,,2013-02-13 22:42:00,
2013-02-13 14:52:00,62.0,39.0,-100.00,NNW,331,4.0,-999.0,41,0.00,,,-99.99,,2013-02-13 22:52:00,
2013-02-13 15:00:00,64.0,42.0,-100.00,NNW,330,2.0,-999.0,44,0.00,,,-99.99,,2013-02-13 23:00:00,
2013-02-13 15:22:00,64.0,42.0,-100.00,NNW,330,2.0,-999.0,44,0.00,,,-99.99,,2013-02-13 23:22:00,
2013-02-13 15:32:00,64.0,42.0,-100.00,NNW,330,2.0,-999.0,44,0.00,,,-99.99,,2013-02-13 23:32:00,
2013-02-13 15:42:00,64.0,42.0,-100.00,NNW,330,2.0,-999.0,44,0.00,,,-99.99,,2013-02-13 23:42:00,
2013-02-13 15:52:00,64.0,42.0,-100.00,NNW,330,2.0,-999.0,44,0.00,,,-99.99,,2013-02-13 23:52:00,
2013-02-13 16:00:00,62.0,42.0,-100.00,NW,321,3.0,-999.0,48,0.00,,,-99.99,,2013-02-14 00:00:00,
2013-02-13 16:22:00,62.0,42.0,-100.00,NW,321,3.0,-999.0,48,0.00,,,-99.99,,2013-02-14 00:22:00,
2013-02-13 16:32:00,62.0,42.0,-100.00,NW,321,3.0,-999.0,48,0.00,,,-99.99,,2013-02-14 00:32:00,
2013-02-13 16:42:00,62.0,42.0,-100.00,NW,321,3.0,-999.0,48,0.00,,,-99.99,,2013-02-14 00:42:00,
2013-02-13 16:52:00,62.0,42.0,-100.00,NW,321,3.0,-999.0,48,0.00,,,-99.99,,2013-02-14 00:52:00,
2013-02-13 17:00:00,60.0,44.0,-100.00,NNW,340,3.0,-999.0,55,0.00,,,-99.99,,2013-02-14 01:00:00,
2013-02-13 17:21:00,60.0,44.0,-100.00,NNW,340,3.0,-999.0,55,0.00,,,-99.99,,2013-02-14 01:21:00,
2013-02-13 17:32:00,60.0,44.0,-100.00,NNW,340,3.0,-999.0,55,0.00,,,-99.99,,2013-02-14 01:32:00,
2013-02-13 17:42:00,60.0,44.0,-100.00,NNW,340,3.0,-999.0,55,0.00,,,-99.99,,2013-02-14 01:42:00,
2013-02-13 17:51:00,60.0,44.0,-100.00,NNW,340,3.0,-999.0,55,0.00,,,-99.99,,2013-02-14 01:51:00,
2013-02-13 18:00:00,57.0,45.0,-100.00,NNW,334,5.0,-999.0,64,0.00,,,-99.99,,2013-02-14 02:00:00,
2013-02-13 18:21:00,57.0,45.0,-100.00,NNW,334,5.0,-999.0,64,0.00,,,-99.99,,2013-02-14 02:21:00,
2013-02-13 18:32:00,57.0,45.0,-100.00,NNW,334,5.0,-999.0,64,0.00,,,-99.99,,2013-02-14 02:32:00,
2013-02-13 18:42:00,57.0,45.0,-100.00,NNW,334,5.0,-999.0,64,0.00,,,-99.99,,2013-02-14 02:42:00,
2013-02-13 18:51:00,57.0,45.0,-100.00,NNW,334,5.0,-999.0,64,0.00,,,-99.99,,2013-02-14 02:51:00,
2013-02-13 19:00:00,53.0,46.0,-100.00,NNW,346,4.0,-999.0,75,0.00,,,-99.99,,2013-02-14 03:00:00,
2013-02-13 19:22:00,53.0,46.0,-100.00,NNW,346,4.0,-999.0,75,0.00,,,-99.99,,2013-02-14 03:22:00,
2013-02-13 19:32:00,53.0,46.0,-100.00,NNW,346,4.0,-999.0,75,0.00,,,-99.99,,2013-02-14 03:32:00,
2013-02-13 19:42:00,53.0,46.0,-100.00,NNW,346,4.0,-999.0,75,0.00,,,-99.99,,2013-02-14 03:42:00,
2013-02-13 19:52:00,53.0,46.0,-100.00,NNW,346,4.0,-999.0,75,0.00,,,-99.99,,2013-02-14 03:52:00,
2013-02-13 20:00:00,51.0,46.0,-100.00,South,169,3.0,-999.0,84,0.00,,,-99.99,,2013-02-14 04:00:00,
2013-02-13 20:21:00,51.0,46.0,-100.00,South,169,3.0,-999.0,84,0.00,,,-99.99,,2013-02-14 04:21:00,
2013-02-13 20:32:00,51.0,46.0,-100.00,South,169,3.0,-999.0,84,0.00,,,-99.99,,2013-02-14 04:32:00,
2013-02-13 20:42:00,51.0,46.0,-100.00,South,169,3.0,-999.0,84,0.00,,,-99.99,,2013-02-14 04:42:00,
2013-02-13 20:51:00,51.0,46.0,-100.00,South,169,3.0,-999.0,84,0.00,,,-99.99,,2013-02-14 04:51:00,
2013-02-13 21:00:00,48.0,45.0,-100.00,South,172,2.0,-999.0,89,0.00,,,-99.99,,2013-02-14 05:00:00,
2013-02-13 21:22:00,48.0,45.0,-100.00,South,172,2.0,-999.0,89,0.00,,,-99.99,,2013-02-14 05:22:00,
2013-02-13 21:32:00,48.0,45.0,-100.00,South,172,2.0,-999.0,89,0.00,,,-99.99,,2013-02-14 05:32:00,
2013-02-13 21:42:00,48.0,45.0,-100.00,South,172,2.0,-999.0,89,0.00,,,-99.99,,2013-02-14 05:42:00,
2013-02-13 21:52:00,48.0,45.0,-100.00,South,172,2.0,-999.0,89,0.00,,,-99.99,,2013-02-14 05:52:00,
2013-02-13 22:00:00,47.0,44.0,-100.00,SE,136,3.0,-999.0,90,0.00,,,-99.99,,2013-02-14 06:00:00,
2013-02-13 22:22:00,47.0,44.0,-100.00,SE,136,3.0,-999.0,90,0.00,,,-99.99,,2013-02-14 06:22:00,
2013-02-13 22:32:00,47.0,44.0,-100.00,SE,136,3.0,-999.0,90,0.00,,,-99.99,,2013-02-14 06:32:00,
2013-02-13 22:42:00,47.0,44.0,-100.00,SE,136,3.0,-999.0,90,0.00,,,-99.99,,2013-02-14 06:42:00,
2013-02-13 22:52:00,47.0,44.0,-100.00,SE,136,3.0,-999.0,90,0.00,,,-99.99,,2013-02-14 06:52:00,
2013-02-13 23:00:00,45.0,43.0,-100.00,SSE,161,4.0,-999.0,93,0.00,,,-99.99,,2013-02-14 07:00:00,
2013-02-13 23:21:00,45.0,43.0,-100.00,SSE,161,4.0,-999.0,93,0.00,,,-99.99,,2013-02-14 07:21:00,
2013-02-13 23:32:00,45.0,43.0,-100.00,SSE,161,4.0,-999.0,93,0.00,,,-99.99,,2013-02-14 07:32:00,
2013-02-13 23:42:00,45.0,43.0,-100.00,SSE,161,4.0,-999.0,93,0.00,,,-99.99,,2013-02-14 07:42:00,
2013-02-13 23:52:00,45.0,43.0,-100.00,SSE,161,4.0,-999.0,93,0.00,,,-99.99,,2013-02-14 07:52:00,